Penfield, NY (14526)

12:12 PM EDT on October 25, 2014 (GMT -0400)
Country Club East | Change Station
CLOSE
Current Station
Personal Weather Station
Location: New York, NY
Elevation: 512 ft
Nearby Weather Stations

Elev 512 ft 43.15 °N, 77.44 °W | Updated 1 minute ago

Mostly Cloudy
Mostly Cloudy
62.1 °F
Feels Like 62.1 °F
N
8.0
Wind Variable Wind from SSW
Gusts 15.0 mph

Today
High -- | Low -- °F
--% Chance of Precip.
Yesterday
High -- | Low -- °F
Precip. -- in
7:35 AM 6:11 PM
Waxing Crescent, 3% visible
Pressure 29.71 in
Visibility 10.0 miles
Clouds Few 4000 ft
Scattered Clouds 11000 ft
Scattered Clouds 22000 ft
Dew Point 50 °F
Humidity 64%
Rainfall 0.00 in
Snow Depth Not available.
UV 3 out of 12
Pollen 1.70 out of 12
Air Quality Not available.
Flu Activity Sporadic
METAR KROC 251554Z 22013KT 10SM FEW040 SCT110 SCT220 17/09 A2969 RMK AO2 SLP059 T01670089

More Conditions Fewer Conditions

Pressure 29.71 in
Visibility 10.0 miles
Clouds Few 4000 ft
Scattered Clouds 11000 ft
Scattered Clouds 22000 ft
Dew Point 50 °F
Humidity 64%
Rainfall 0.00 in
Snow Depth Not available.
UV 3 out of 12
Pollen 1.70 out of 12
Air Quality Not available.
Flu Activity Sporadic
METAR KROC 251554Z 22013KT 10SM FEW040 SCT110 SCT220 17/09 A2969 RMK AO2 SLP059 T01670089

More Conditions Fewer Conditions

10-Day Weather Forecast

Almanac

Astronomy

Oct. 25, 2014 Rise Set
Actual Time 7:35 AM EDT 6:11 PM EDT
Civil Twilight 7:06 AM EDT 6:40 PM EDT
Nautical Twilight 6:33 AM EDT 7:13 PM EDT
Astronomical Twilight 6:00 AM EDT 7:46 PM EDT
Moon 9:14 AM EDT 7:30 PM EDT
Length of Visible Light 11h 33m
Length of Day
10h 35m
Tomorrow will be 2m 43s shorter.
Waxing Crescent, 3% of the Moon is Illuminated
Today
Waxing Crescent
Oct 30
First Quarter
Nov 6
Full
Nov 14
Last Quarter
Nov 22
New

Today's Extremes

State Highs State Lows

Community

WunderPhotos

Upload Photos

1,764,887 photos uploaded!

Nearby

Air Quality

  Air Quality AQ Index Pollutant
Saturday Good
PM2.5
Sunday Good
PM2.5
Monday Good
PM2.5

Snow Depth

Station Depth Elevation
No new snow has been reported.

Earthquake Activity

City Distance Mag. Time & Date
No recent earthquake activity has been reported nearby.
Minimum magnitude displayed is 2.5.

Coastal Water Temperatures

Place Temperature
Buffalo, NY 57.0 °F
Alexandria Bay, NY 55.9 °F

Nearby Weather Stations